Time;durP1;ratioP1;P1;durP2;ratioP2;P2;SDS_P1;SDS_P2;PMS_P1;PMS_P2;Temp;Humidity;BMP_temperature;BMP_pressure;BME280_temperature;BME280_humidity;BME280_pressure;Samples;Min_cycle;Max_cycle;Signal;HPM_P1;HPM_P2
2023/07/13 00:03:00;;;;;;;10.3;6.5;;;;;;;20.92;82.21;;;;;
2023/07/13 00:14:00;;;;;;;9.3;6;;;;;;;20.81;83.48;;;;;
2023/07/13 00:25:00;;;;;;;9.3;6;;;;;;;20.57;85.38;;;;;
2023/07/13 00:35:00;;;;;;;8.9;6;;;;;;;20.46;86.1;;;;;
2023/07/13 00:45:00;;;;;;;8.9;6;;;;;;;20.43;86.45;;;;;
2023/07/13 00:56:00;;;;;;;8.9;6;;;;;;;20.25;87.44;;;;;
2023/07/13 01:06:00;;;;;;;9.8;6.4;;;;;;;19.95;89;;;;;
2023/07/13 01:17:00;;;;;;;9.8;6.4;;;;;;;19.93;89.07;;;;;
2023/07/13 01:28:00;;;;;;;9.8;6.4;;;;;;;20.1;88.07;;;;;
2023/07/13 01:38:01;;;;;;;9.2;5.3;;;;;;;20.26;87.61;;;;;
2023/07/13 01:48:00;;;;;;;9.2;5.3;;;;;;;20.12;88.58;;;;;
2023/07/13 01:58:00;;;;;;;9.2;5.3;;;;;;;20.04;88.54;;;;;
2023/07/13 02:09:00;;;;;;;8;5.4;;;;;;;20;87.89;;;;;
2023/07/13 02:19:00;;;;;;;8;5.4;;;;;;;19.78;87.68;;;;;
2023/07/13 02:30:00;;;;;;;8;5.4;;;;;;;19.68;87.27;;;;;
2023/07/13 02:40:00;;;;;;;7.2;4.2;;;;;;;19.57;86.62;;;;;
2023/07/13 02:51:00;;;;;;;7.2;4.2;;;;;;;19.19;87.16;;;;;
2023/07/13 03:01:00;;;;;;;7.2;4.2;;;;;;;19.18;87.6;;;;;
2023/07/13 03:12:00;;;;;;;8.1;3.9;;;;;;;19.05;89.71;;;;;
2023/07/13 03:22:00;;;;;;;8.1;3.9;;;;;;;19.26;89.6;;;;;
2023/07/13 03:32:00;;;;;;;8.1;3.9;;;;;;;19.54;88.61;;;;;
2023/07/13 03:42:00;;;;;;;8.6;5.4;;;;;;;19.4;88.73;;;;;
2023/07/13 03:53:00;;;;;;;8.6;5.4;;;;;;;19.49;88.93;;;;;
2023/07/13 04:04:00;;;;;;;8.6;5.4;;;;;;;19.75;88.11;;;;;
2023/07/13 04:14:00;;;;;;;7.3;4;;;;;;;19.92;86.71;;;;;
2023/07/13 04:25:00;;;;;;;7.3;4;;;;;;;20.59;86.2;;;;;
2023/07/13 04:35:00;;;;;;;6.7;4;;;;;;;21.1;83.87;;;;;
2023/07/13 04:45:00;;;;;;;6.7;4;;;;;;;21.49;84.26;;;;;
2023/07/13 04:56:00;;;;;;;6.7;4;;;;;;;22.14;81.62;;;;;
2023/07/13 05:06:00;;;;;;;10.9;4.6;;;;;;;22.16;81.82;;;;;
2023/07/13 05:16:00;;;;;;;10.9;4.6;;;;;;;22.3;81.54;;;;;
2023/07/13 05:26:00;;;;;;;10.9;4.6;;;;;;;22.62;80.27;;;;;
2023/07/13 05:37:00;;;;;;;9.7;5.7;;;;;;;22.99;78.53;;;;;
2023/07/13 05:48:00;;;;;;;9.7;5.7;;;;;;;23.29;77.51;;;;;
2023/07/13 05:58:00;;;;;;;9.7;5.7;;;;;;;23.34;78.11;;;;;
2023/07/13 06:08:00;;;;;;;8.2;4.3;;;;;;;23.83;77.43;;;;;
2023/07/13 06:19:00;;;;;;;8.2;4.3;;;;;;;23.92;75.49;;;;;
2023/07/13 06:30:00;;;;;;;8.2;4.3;;;;;;;24.34;73.9;;;;;
2023/07/13 06:40:00;;;;;;;6.4;3.9;;;;;;;24.85;73.51;;;;;
2023/07/13 06:50:00;;;;;;;6.4;3.9;;;;;;;25.26;71.19;;;;;
2023/07/13 07:00:00;;;;;;;6.4;3.9;;;;;;;25.42;71.38;;;;;
2023/07/13 07:11:00;;;;;;;9;5.2;;;;;;;25.8;70.77;;;;;
2023/07/13 07:21:00;;;;;;;9;5.2;;;;;;;26.04;69.39;;;;;
2023/07/13 07:31:00;;;;;;;9;5.2;;;;;;;26.52;65.58;;;;;
2023/07/13 07:41:00;;;;;;;7.4;4.7;;;;;;;26.19;66.81;;;;;
2023/07/13 07:52:00;;;;;;;7.4;4.7;;;;;;;26.83;65.67;;;;;
2023/07/13 08:03:00;;;;;;;7.4;4.7;;;;;;;27.6;63.36;;;;;
2023/07/13 08:13:00;;;;;;;8.3;5;;;;;;;27.7;60.62;;;;;
2023/07/13 08:24:00;;;;;;;8.3;5;;;;;;;27.85;60.11;;;;;
2023/07/13 08:34:00;;;;;;;8.3;5;;;;;;;28.32;59.49;;;;;
2023/07/13 08:45:00;;;;;;;7.1;4.4;;;;;;;28.64;58.83;;;;;
2023/07/13 08:55:00;;;;;;;7.1;4.4;;;;;;;27.81;61.92;;;;;
2023/07/13 09:05:00;;;;;;;8.4;4.8;;;;;;;27.99;59.3;;;;;
2023/07/13 09:15:00;;;;;;;8.4;4.8;;;;;;;27.87;61.9;;;;;
2023/07/13 09:26:00;;;;;;;8.4;4.8;;;;;;;27.58;62.14;;;;;
2023/07/13 09:36:00;;;;;;;10.1;4.9;;;;;;;26.86;62.9;;;;;
2023/07/13 09:47:02;;;;;;;10.1;4.9;;;;;;;26.47;63.82;;;;;
2023/07/13 09:57:00;;;;;;;10.1;4.9;;;;;;;25.88;65.4;;;;;
2023/07/13 10:07:00;;;;;;;7;4.1;;;;;;;25.18;68.83;;;;;
2023/07/13 10:18:00;;;;;;;7;4.1;;;;;;;24.51;73.97;;;;;
2023/07/13 10:28:00;;;;;;;7;4.1;;;;;;;24.73;76.52;;;;;
2023/07/13 10:39:00;;;;;;;9.4;5.9;;;;;;;24.13;75.21;;;;;
2023/07/13 10:50:00;;;;;;;9.4;5.9;;;;;;;23.71;77.14;;;;;
2023/07/13 11:00:00;;;;;;;9.4;5.9;;;;;;;23.11;79.79;;;;;
2023/07/13 11:10:00;;;;;;;10.7;7.7;;;;;;;22.76;81.17;;;;;
2023/07/13 11:21:00;;;;;;;10.7;7.7;;;;;;;22.09;83.94;;;;;
2023/07/13 11:32:01;;;;;;;10.7;7.7;;;;;;;21.29;86.42;;;;;
2023/07/13 11:42:00;;;;;;;10.3;7.6;;;;;;;19.24;87.95;;;;;
2023/07/13 11:52:02;;;;;;;10.3;7.6;;;;;;;17.75;89.73;;;;;
2023/07/13 12:02:01;;;;;;;10.3;7.6;;;;;;;17.53;92.13;;;;;
2023/07/13 12:13:00;;;;;;;4.3;2.7;;;;;;;17.64;93.07;;;;;
2023/07/13 12:23:02;;;;;;;4.3;2.7;;;;;;;17.81;93.17;;;;;
2023/07/13 12:34:00;;;;;;;4.3;2.7;;;;;;;17.99;92.63;;;;;
2023/07/13 12:44:00;;;;;;;5.5;2.5;;;;;;;18.13;91.39;;;;;
2023/07/13 12:54:00;;;;;;;5.5;2.5;;;;;;;18.66;93.21;;;;;
2023/07/13 13:05:00;;;;;;;5.5;2.5;;;;;;;18.95;90.77;;;;;
2023/07/13 13:15:00;;;;;;;5.7;2.6;;;;;;;19.32;90.51;;;;;
2023/07/13 13:25:00;;;;;;;5.7;2.6;;;;;;;19.63;90.17;;;;;
2023/07/13 13:36:00;;;;;;;6.1;2.9;;;;;;;19.6;89.74;;;;;
2023/07/13 13:47:00;;;;;;;6.1;2.9;;;;;;;19.66;89.14;;;;;
2023/07/13 13:57:00;;;;;;;6.1;2.9;;;;;;;20.05;87.67;;;;;
2023/07/13 14:07:00;;;;;;;;;;;;;;;;;;;;;
2023/07/13 14:17:00;;;;;;;4.7;2.3;;;;;;;21.13;82.54;;;;;
2023/07/13 14:27:00;;;;;;;;;;;;;;;;;;;;;
2023/07/13 14:37:00;;;;;;;;;;;;;;;;;;;;;
2023/07/13 14:48:00;;;;;;;;;;;;;;;;;;;;;
2023/07/13 14:58:00;;;;;;;;;;;;;;;;;;;;;
2023/07/13 15:08:00;;;;;;;;;;;;;;;;;;;;;
2023/07/13 15:19:02;;;;;;;5;2.5;;;;;;;22.1;77.1;;;;;
2023/07/13 15:29:01;;;;;;;;;;;;;;;;;;;;;
2023/07/13 15:39:00;;;;;;;5.2;2.9;;;;;;;22.75;74;;;;;
2023/07/13 15:50:00;;;;;;;5.2;2.9;;;;;;;24.97;66.36;;;;;
2023/07/13 16:00:00;;;;;;;5.2;2.9;;;;;;;25.36;64.63;;;;;
2023/07/13 16:10:00;;;;;;;7.7;3.1;;;;;;;24.13;65.26;;;;;
2023/07/13 16:21:00;;;;;;;7.7;3.1;;;;;;;23.49;69.14;;;;;
2023/07/13 16:31:02;;;;;;;7.7;3.1;;;;;;;22.52;71.75;;;;;
2023/07/13 16:42:00;;;;;;;9.3;5.3;;;;;;;21.98;72.35;;;;;
2023/07/13 16:52:02;;;;;;;9.3;5.3;;;;;;;21.87;73.08;;;;;
2023/07/13 17:03:01;;;;;;;9.3;5.3;;;;;;;24.48;66.68;;;;;
2023/07/13 17:13:00;;;;;;;11.4;6.8;;;;;;;26.23;58.27;;;;;
2023/07/13 17:23:01;;;;;;;11.4;6.8;;;;;;;24.55;63.7;;;;;
2023/07/13 17:34:00;;;;;;;11.4;6.8;;;;;;;23.44;67.8;;;;;
2023/07/13 17:44:01;;;;;;;10.6;7.2;;;;;;;23.57;68.74;;;;;
2023/07/13 17:54:01;;;;;;;10.6;7.2;;;;;;;25.46;63.07;;;;;
2023/07/13 18:04:00;;;;;;;10.6;7.2;;;;;;;25.84;60.07;;;;;
2023/07/13 18:14:01;;;;;;;9.7;6.6;;;;;;;24.35;65.78;;;;;
2023/07/13 18:25:00;;;;;;;9.7;6.6;;;;;;;22.72;69.3;;;;;
2023/07/13 18:35:01;;;;;;;9.7;6.6;;;;;;;21.48;74.3;;;;;
2023/07/13 18:45:00;;;;;;;11.3;6.2;;;;;;;20.81;75.98;;;;;
2023/07/13 18:56:00;;;;;;;11.3;6.2;;;;;;;20.2;76.8;;;;;
2023/07/13 19:07:01;;;;;;;8.7;5.6;;;;;;;19.68;78.36;;;;;
2023/07/13 19:18:01;;;;;;;8.7;5.6;;;;;;;19.28;80.08;;;;;
2023/07/13 19:28:02;;;;;;;8.7;5.6;;;;;;;18.95;80.86;;;;;
2023/07/13 19:38:00;;;;;;;8.1;5.5;;;;;;;18.73;82.02;;;;;
2023/07/13 19:49:01;;;;;;;8.1;5.5;;;;;;;18.47;83.13;;;;;
2023/07/13 20:00:02;;;;;;;8.1;5.5;;;;;;;18.21;84.42;;;;;
2023/07/13 20:10:01;;;;;;;8.6;5.4;;;;;;;18.06;84.59;;;;;
2023/07/13 20:21:00;;;;;;;8.6;5.4;;;;;;;17.9;85.77;;;;;
2023/07/13 20:31:00;;;;;;;8.6;5.4;;;;;;;17.8;87.02;;;;;
2023/07/13 20:42:00;;;;;;;7.8;5.4;;;;;;;17.82;86.83;;;;;
2023/07/13 20:52:02;;;;;;;7.8;5.4;;;;;;;17.74;87.05;;;;;
2023/07/13 21:03:00;;;;;;;7.8;5.4;;;;;;;17.72;89.29;;;;;
2023/07/13 21:14:00;;;;;;;9.9;5.3;;;;;;;17.8;89.03;;;;;
2023/07/13 21:25:00;;;;;;;9.9;5.3;;;;;;;17.79;88.72;;;;;
2023/07/13 21:35:05;;;;;;;9.9;5.3;;;;;;;17.8;88.28;;;;;
2023/07/13 21:45:01;;;;;;;8.3;5.3;;;;;;;17.72;88.21;;;;;
2023/07/13 21:56:00;;;;;;;8.3;5.3;;;;;;;17.59;87.88;;;;;
2023/07/13 22:07:00;;;;;;;8;5.7;;;;;;;17.38;87.77;;;;;
2023/07/13 22:18:01;;;;;;;8;5.7;;;;;;;17.17;88.11;;;;;
2023/07/13 22:28:00;;;;;;;8;5.7;;;;;;;17.01;88.02;;;;;
2023/07/13 22:39:00;;;;;;;7.9;5.4;;;;;;;16.84;87.79;;;;;
2023/07/13 22:49:03;;;;;;;7.9;5.4;;;;;;;16.63;87.97;;;;;
2023/07/13 22:59:01;;;;;;;7.9;5.4;;;;;;;16.44;88.23;;;;;
2023/07/13 23:10:01;;;;;;;8.8;5.8;;;;;;;16.25;88.28;;;;;
2023/07/13 23:21:00;;;;;;;8.8;5.8;;;;;;;16.04;88.37;;;;;
2023/07/13 23:31:03;;;;;;;8.8;5.8;;;;;;;15.88;88.62;;;;;
2023/07/13 23:41:00;;;;;;;9.3;6.3;;;;;;;15.92;89.97;;;;;
2023/07/13 23:51:00;;;;;;;9.3;6.3;;;;;;;15.97;90.2;;;;;
